Schwenksville, Pennsylvania
Current Conditions -  °F | °C
As of 1:20 AM on Monday 26 Jan 2015 (Local Time) from KPTW Reporting Station
Light Snow Light Snow  
Wind Chill: 16°   Ceiling: 2900
Heat Index: 26°   Visibility: 3mi
Dew Point: 22°   Wind: 10mph
Humidity: 84%   Direction: 70°ENE
Pressure: 29.95"   Gusts: 17mph
Location:  40.26°N, 75.46°W
Report Text: KPTW 260620Z AUTO 07009G15KT 3SM -SN BR OVC029 M03/M06 A2995 RMK AO2 P0001 T10331056
Loading
Personal Weather Stations






























Interactive Weather Map New forecast layout! Learn more

10-Day Weather Forecast

Advertisements
Track Severe Weather on mobile